Time;durP1;ratioP1;P1;durP2;ratioP2;P2;SDS_P1;SDS_P2;PMS_P1;PMS_P2;Temp;Humidity;BMP_temperature;BMP_pressure;BME280_temperature;BME280_humidity;BME280_pressure;Samples;Min_cycle;Max_cycle;Signal;HPM_P1;HPM_P2
2022/12/13 00:00:33;;;;;;;9.05;4.45;;;;;;;-0.29;94.11;94097.66;5145221;27;20201;-75
2022/12/13 00:03:00;;;;;;;6.72;3.90;;;;;;;-0.33;92.71;94104.56;5145813;27;20249;-75
2022/12/13 00:05:27;;;;;;;2.08;1.80;;;;;;;-0.39;92.04;94105.66;5139601;27;20256;-75
2022/12/13 00:07:53;;;;;;;8.40;4.57;;;;;;;-0.44;93.33;94101.16;5138755;27;20197;-75
2022/12/13 00:10:20;;;;;;;8.15;4.60;;;;;;;-0.52;94.68;94106.22;5144439;27;20209;-75
2022/12/13 00:12:47;;;;;;;7.75;3.33;;;;;;;-0.58;94.21;94112.66;5145751;27;20251;-75
2022/12/13 00:15:14;;;;;;;4.45;2.13;;;;;;;-0.61;94.08;94118.50;5139756;27;20219;-75
2022/12/13 00:17:44;;;;;;;9.32;4.53;;;;;;;-0.61;94.90;94118.50;5138307;27;20224;-75
2022/12/13 00:20:11;;;;;;;8.38;4.70;;;;;;;-0.54;95.38;94108.38;5142957;27;20212;-75
2022/12/13 00:22:38;;;;;;;6.28;3.92;;;;;;;-0.53;95.28;94115.28;5145406;27;20580;-75
2022/12/13 00:25:05;;;;;;;8.32;4.55;;;;;;;-0.56;95.37;94115.84;5141745;27;20250;-75
2022/12/13 00:27:32;;;;;;;7.50;4.00;;;;;;;-0.54;95.91;94124.31;5131613;27;20200;-75
2022/12/13 00:29:59;;;;;;;6.32;4.07;;;;;;;-0.56;95.41;94127.28;5131109;27;20204;-74
2022/12/13 00:32:26;;;;;;;7.18;4.70;;;;;;;-0.61;95.41;94121.16;5144854;27;20200;-75
2022/12/13 00:34:54;;;;;;;8.65;4.32;;;;;;;-0.57;95.96;94114.25;5140322;27;20686;-74
2022/12/13 00:37:20;;;;;;;8.25;4.97;;;;;;;-0.61;95.70;94118.50;5134935;27;20205;-74
2022/12/13 00:39:47;;;;;;;8.93;5.20;;;;;;;-0.60;96.32;94114.78;5141232;27;20249;-74
2022/12/13 00:42:14;;;;;;;9.52;5.10;;;;;;;-0.64;96.18;94109.19;5133984;27;20197;-74
2022/12/13 00:44:41;;;;;;;9.88;4.97;;;;;;;-0.57;95.95;94119.56;5141536;27;20199;-74
2022/12/13 00:47:07;;;;;;;8.20;4.45;;;;;;;-0.54;94.77;94114.47;5148208;27;20205;-74
2022/12/13 00:49:34;;;;;;;7.03;4.45;;;;;;;-0.49;94.42;94116.34;5141698;27;20201;-76
2022/12/13 00:52:02;;;;;;;9.90;5.00;;;;;;;-0.48;94.42;94112.59;5137589;27;20207;-74
2022/12/13 00:54:29;;;;;;;9.07;4.40;;;;;;;-0.50;92.71;94109.41;5140568;27;20312;-75
2022/12/13 00:56:56;;;;;;;8.23;4.60;;;;;;;-0.54;93.06;94109.16;5135187;27;20676;-74
2022/12/13 00:59:23;;;;;;;8.90;4.57;;;;;;;-0.47;92.28;94116.88;5140241;27;20205;-74
2022/12/13 01:01:50;;;;;;;7.72;4.07;;;;;;;-0.45;93.32;94122.72;5144212;27;20197;-75
2022/12/13 01:04:16;;;;;;;7.05;3.65;;;;;;;-0.46;92.62;94121.13;5142769;27;20603;-75
2022/12/13 01:06:45;;;;;;;8.20;4.32;;;;;;;-0.50;93.26;94110.22;5137860;27;20608;-75
2022/12/13 01:09:17;;;;;;;10.90;5.05;;;;;;;-0.52;94.69;94116.88;5140029;27;20269;-75
2022/12/13 01:11:44;;;;;;;9.65;5.07;;;;;;;-0.54;93.87;94119.00;5144759;27;20270;-74
2022/12/13 01:14:11;;;;;;;11.05;4.95;;;;;;;-0.58;93.83;94125.94;5142966;27;20224;-74
2022/12/13 01:16:38;;;;;;;7.57;4.10;;;;;;;-0.54;94.10;94124.31;5137588;27;20245;-74
2022/12/13 01:19:05;;;;;;;8.02;4.72;;;;;;;-0.63;93.98;94125.94;5138328;27;20205;-75
2022/12/13 01:21:32;;;;;;;9.43;4.97;;;;;;;-0.65;94.26;94126.22;5143922;27;20740;-75
2022/12/13 01:24:03;;;;;;;5.88;3.45;;;;;;;-0.66;94.34;94131.81;5132596;27;20592;-75
2022/12/13 01:26:32;;;;;;;9.32;5.18;;;;;;;-0.67;93.89;94124.88;5137350;27;20659;-75
2022/12/13 01:28:59;;;;;;;8.05;4.45;;;;;;;-0.64;93.87;94124.34;5136946;27;20606;-75
2022/12/13 01:31:26;;;;;;;8.50;4.72;;;;;;;-0.62;93.63;94123.03;5143130;27;20205;-75
2022/12/13 01:33:53;;;;;;;10.10;5.05;;;;;;;-0.65;93.94;94123.56;5144736;27;20224;-75
2022/12/13 01:36:21;;;;;;;7.70;4.20;;;;;;;-0.72;93.44;94123.84;5138462;27;20228;-75
2022/12/13 01:38:48;;;;;;;8.27;4.63;;;;;;;-0.72;93.57;94131.03;5137903;27;20513;-75
2022/12/13 01:41:16;;;;;;;6.80;3.65;;;;;;;-0.88;94.06;94124.16;5142309;27;20230;-75
2022/12/13 01:43:59;;;;;;;9.45;5.45;;;;;;;-0.96;94.71;94128.16;5132559;27;20214;-75
2022/12/13 01:46:26;;;;;;;8.50;4.63;;;;;;;-1.04;94.53;94126.03;5153921;27;20192;-75
2022/12/13 01:49:02;;;;;;;10.10;5.22;;;;;;;-1.17;95.30;94110.63;5141031;27;20204;-75
2022/12/13 01:51:35;;;;;;;10.65;5.38;;;;;;;-1.22;95.60;94114.06;5141856;27;20200;-75
2022/12/13 01:54:04;;;;;;;10.32;5.25;;;;;;;-1.27;96.06;94126.59;5141058;27;20643;-74
2022/12/13 01:56:36;;;;;;;4.18;2.58;;;;;;;-1.27;95.27;94118.63;5139876;27;20201;-75
2022/12/13 01:59:06;;;;;;;11.55;4.85;;;;;;;-1.36;95.19;94122.84;5142960;27;20208;-75
2022/12/13 02:01:34;;;;;;;14.55;6.10;;;;;;;-1.42;95.50;94129.25;5140609;27;20215;-74
2022/12/13 02:04:00;;;;;;;9.40;5.03;;;;;;;-1.44;95.61;94127.63;5144899;27;20204;-74
2022/12/13 02:06:33;;;;;;;8.25;5.05;;;;;;;-1.44;95.53;94117.03;5150361;27;20311;-75
2022/12/13 02:09:01;;;;;;;6.60;3.20;;;;;;;-1.40;94.62;94132.44;5143651;27;20284;-74
2022/12/13 02:11:28;;;;;;;6.75;3.63;;;;;;;-1.49;94.97;94135.59;5147210;27;20228;-73
2022/12/13 02:13:55;;;;;;;10.43;4.90;;;;;;;-1.55;95.57;94126.03;5144406;27;20223;-73
2022/12/13 02:16:34;;;;;;;9.48;4.68;;;;;;;-1.55;95.61;94122.59;5135886;27;20870;-73
2022/12/13 02:19:36;;;;;;;9.82;5.30;;;;;;;-1.59;95.26;94124.97;5146636;27;20241;-74
2022/12/13 02:22:13;;;;;;;8.95;4.32;;;;;;;-1.66;94.93;94111.19;5111742;27;20196;-75
2022/12/13 02:24:57;;;;;;;10.38;5.68;;;;;;;-1.70;95.95;94120.72;5141981;27;20188;-74
2022/12/13 02:27:50;;;;;;;10.73;5.05;;;;;;;-1.74;96.18;94124.94;5140051;27;20192;-75
2022/12/13 02:30:26;;;;;;;10.68;5.68;;;;;;;-1.77;97.01;94128.13;5142078;27;20185;-74
2022/12/13 02:33:15;;;;;;;14.73;6.38;;;;;;;-1.81;97.15;94122.56;5139474;27;20192;-74
2022/12/13 02:35:47;;;;;;;7.15;3.55;;;;;;;-1.78;96.45;94131.88;5137450;27;20699;-74
2022/12/13 02:38:24;;;;;;;11.57;6.28;;;;;;;-1.79;96.50;94135.56;5143981;27;20189;-74
2022/12/13 02:40:57;;;;;;;9.02;5.65;;;;;;;-1.73;96.64;94141.69;5139617;27;20553;-73
2022/12/13 02:43:28;;;;;;;12.60;6.65;;;;;;;-1.71;96.68;94142.22;5140767;27;20244;-73
2022/12/13 02:46:00;;;;;;;12.13;5.97;;;;;;;-1.73;96.79;94134.50;5140257;27;20264;-73
2022/12/13 02:48:31;;;;;;;13.57;6.53;;;;;;;-1.81;97.22;94137.69;5139866;27;20197;-74
2022/12/13 02:50:59;;;;;;;11.68;6.43;;;;;;;-1.83;98.09;94142.47;5144328;27;20249;-74
2022/12/13 02:53:26;;;;;;;14.55;6.10;;;;;;;-1.87;98.38;94138.72;5149323;27;20224;-74
2022/12/13 02:55:53;;;;;;;6.32;2.92;;;;;;;-1.82;98.11;94136.09;5143988;27;20715;-74
2022/12/13 02:58:23;;;;;;;13.05;6.53;;;;;;;-1.82;97.21;94146.72;5146662;27;20731;-74
2022/12/13 03:00:59;;;;;;;7.30;4.50;;;;;;;-1.76;96.96;94148.31;5132676;27;20254;-74
2022/12/13 03:03:42;;;;;;;12.95;5.80;;;;;;;-1.78;96.92;94147.78;5146767;27;20650;-74
2022/12/13 03:06:30;;;;;;;13.15;6.65;;;;;;;-1.76;96.99;94152.81;5146521;27;20715;-74
2022/12/13 03:09:07;;;;;;;8.52;5.05;;;;;;;-1.76;96.22;94164.22;5142511;27;20636;-75
2022/12/13 03:14:35;;;;;;;11.55;6.05;;;;;;;-1.81;96.01;94161.56;5146788;27;20216;-74
2022/12/13 03:17:05;;;;;;;8.55;4.40;;;;;;;-1.77;95.47;94159.97;5141377;27;20192;-73
2022/12/13 03:19:33;;;;;;;10.40;5.32;;;;;;;-1.77;94.86;94159.19;5139311;27;20201;-74
2022/12/13 03:22:00;;;;;;;10.70;5.90;;;;;;;-1.81;93.96;94158.94;5143074;27;20601;-74
2022/12/13 03:24:27;;;;;;;10.90;5.63;;;;;;;-1.79;94.15;94148.84;5137501;27;20196;-74
2022/12/13 03:26:54;;;;;;;8.82;4.43;;;;;;;-1.82;93.70;94152.03;5142458;27;20204;-74
2022/12/13 03:29:20;;;;;;;8.38;4.65;;;;;;;-1.89;93.55;94154.13;5146014;27;20201;-74
2022/12/13 03:31:47;;;;;;;10.80;5.95;;;;;;;-1.90;93.37;94155.16;5142458;27;20196;-74
2022/12/13 03:34:14;;;;;;;11.50;5.72;;;;;;;-1.85;93.13;94152.53;5138597;27;20235;-75
2022/12/13 03:36:42;;;;;;;4.97;3.20;;;;;;;-1.84;92.94;94143.53;5141704;27;20233;-74
2022/12/13 03:39:09;;;;;;;10.35;5.68;;;;;;;-1.83;93.04;94161.03;5136370;27;20799;-75
2022/12/13 03:41:36;;;;;;;10.73;5.55;;;;;;;-1.83;93.06;94150.44;5141764;27;20197;-75
2022/12/13 03:44:05;;;;;;;10.75;5.45;;;;;;;-1.89;92.81;94146.16;5146322;27;20217;-75
2022/12/13 03:46:32;;;;;;;9.77;5.05;;;;;;;-1.82;92.91;94141.41;5132143;27;20193;-75
2022/12/13 03:48:59;;;;;;;9.88;5.18;;;;;;;-1.85;92.55;94157.84;5136967;27;20208;-74
2022/12/13 03:51:25;;;;;;;8.48;5.05;;;;;;;-1.84;92.19;94157.59;5140175;27;20213;-74
2022/12/13 03:53:53;;;;;;;9.25;5.38;;;;;;;-1.85;92.82;94163.16;5137091;27;20257;-73
2022/12/13 03:56:20;;;;;;;9.43;5.30;;;;;;;-1.85;91.72;94179.06;5140252;27;20616;-75
2022/12/13 03:58:47;;;;;;;7.90;4.30;;;;;;;-1.84;91.36;94170.06;5144821;27;20717;-76
2022/12/13 04:01:16;;;;;;;7.88;4.70;;;;;;;-1.82;91.05;94181.22;5131606;27;20196;-76
2022/12/13 04:03:44;;;;;;;15.02;4.90;;;;;;;-1.85;90.95;94173.78;5145501;27;20208;-74
2022/12/13 04:06:12;;;;;;;10.55;5.38;;;;;;;-1.82;90.77;94179.38;5144726;27;20207;-75
2022/12/13 04:08:39;;;;;;;8.05;4.63;;;;;;;-1.85;90.25;94181.72;5137594;27;20663;-74
2022/12/13 04:13:48;;;;;;;9.85;5.30;;;;;;;-1.90;90.42;94197.63;5139343;27;20215;-75
2022/12/13 04:16:15;;;;;;;8.93;4.53;;;;;;;-1.99;90.64;94189.38;5138004;27;20257;-76
2022/12/13 04:18:42;;;;;;;11.45;5.75;;;;;;;-2.09;90.75;94183.25;5142605;27;20197;-73
2022/12/13 04:21:09;;;;;;;10.32;4.68;;;;;;;-2.14;91.38;94199.94;5132945;27;20201;-74
2022/12/13 04:23:35;;;;;;;10.82;5.50;;;;;;;-2.23;92.54;94199.66;5149953;27;20188;-75
2022/12/13 04:26:02;;;;;;;9.88;4.97;;;;;;;-2.33;93.22;94199.59;5135437;27;20201;-75
2022/12/13 04:28:31;;;;;;;12.25;5.38;;;;;;;-2.42;94.13;94214.38;5131054;27;20199;-76
2022/12/13 04:30:57;;;;;;;15.00;7.40;;;;;;;-2.55;95.42;94213.00;5144280;27;20692;-74
2022/12/13 04:33:24;;;;;;;10.52;5.50;;;;;;;-2.68;96.05;94223.25;5141433;27;20714;-74
2022/12/13 04:35:52;;;;;;;13.98;7.20;;;;;;;-2.76;96.03;94218.44;5147871;27;20779;-74
2022/12/13 04:38:18;;;;;;;11.45;6.00;;;;;;;-2.74;96.53;94237.53;5130601;27;20606;-75
2022/12/13 04:40:45;;;;;;;8.57;3.97;;;;;;;-2.73;96.16;94236.47;5140811;27;20296;-75
2022/12/13 04:43:12;;;;;;;12.68;5.80;;;;;;;-2.81;96.63;94218.38;5141345;27;20199;-75
2022/12/13 04:45:41;;;;;;;12.60;5.30;;;;;;;-2.86;97.13;94233.19;5138652;27;20192;-75
2022/12/13 04:48:07;;;;;;;14.48;7.53;;;;;;;-2.86;97.93;94233.19;5139043;27;20193;-75
2022/12/13 04:50:35;;;;;;;9.93;5.60;;;;;;;-2.76;97.78;94242.28;5137164;27;20193;-75
2022/12/13 04:53:02;;;;;;;10.57;5.47;;;;;;;-2.83;96.44;94239.03;5141452;27;20559;-75
2022/12/13 04:55:28;;;;;;;13.32;7.22;;;;;;;-2.89;96.51;94236.38;5137291;27;20220;-75
2022/12/13 04:57:55;;;;;;;12.15;6.10;;;;;;;-2.92;97.51;94242.16;5136392;27;20197;-75
2022/12/13 05:00:22;;;;;;;13.05;7.05;;;;;;;-2.97;97.47;94244.75;5133242;27;20201;-77
2022/12/13 05:02:50;;;;;;;10.07;5.20;;;;;;;-2.96;97.32;94237.63;5132828;27;20203;-75
2022/12/13 05:05:17;;;;;;;13.48;7.38;;;;;;;-2.84;96.72;94255.97;5137893;27;20204;-76
2022/12/13 05:07:44;;;;;;;12.20;6.75;;;;;;;-2.81;96.66;94250.97;5135391;27;20189;-75
2022/12/13 05:10:12;;;;;;;17.40;8.48;;;;;;;-2.80;96.45;94251.78;5141093;27;20568;-77
2022/12/13 05:12:39;;;;;;;7.85;4.75;;;;;;;-2.79;95.62;94256.03;5132143;27;20189;-73
2022/12/13 05:15:06;;;;;;;14.57;7.38;;;;;;;-2.74;95.57;94242.84;5136611;27;20216;-77
2022/12/13 05:17:33;;;;;;;7.07;3.53;;;;;;;-2.66;93.99;94263.56;5133402;27;20192;-76
2022/12/13 05:20:01;;;;;;;12.68;6.82;;;;;;;-2.61;93.40;94250.34;5135571;27;20193;-75
2022/12/13 05:22:29;;;;;;;10.85;5.75;;;;;;;-2.53;92.35;94257.81;5136823;27;20292;-77
2022/12/13 05:24:55;;;;;;;12.70;6.90;;;;;;;-2.49;91.50;94258.09;5134591;27;20189;-77
2022/12/13 05:27:22;;;;;;;3.65;2.70;;;;;;;-2.50;89.71;94252.00;5146623;27;20202;-75
2022/12/13 05:29:49;;;;;;;11.93;5.80;;;;;;;-2.46;90.58;94258.38;5134503;27;20254;-77
2022/12/13 05:32:16;;;;;;;9.88;4.90;;;;;;;-2.35;90.67;94260.06;5133681;27;20697;-77
2022/12/13 05:34:42;;;;;;;10.88;5.88;;;;;;;-2.41;90.09;94261.06;5143001;27;20224;-79
2022/12/13 05:37:11;;;;;;;8.20;4.38;;;;;;;-2.44;90.38;94263.41;5137567;27;20185;-76
2022/12/13 05:39:37;;;;;;;11.80;5.78;;;;;;;-2.46;90.04;94268.22;5134537;27;20205;-77
2022/12/13 05:42:04;;;;;;;12.43;7.07;;;;;;;-2.44;90.76;94285.44;5147765;27;20204;-76
2022/12/13 05:44:32;;;;;;;10.18;6.15;;;;;;;-2.40;90.46;94289.19;5143247;27;20265;-77
2022/12/13 05:46:58;;;;;;;10.82;5.45;;;;;;;-2.44;89.56;94285.44;5141428;27;20303;-77
2022/12/13 05:49:25;;;;;;;8.73;5.10;;;;;;;-2.53;90.34;94290.44;5146243;27;20204;-78
2022/12/13 05:51:52;;;;;;;12.63;6.22;;;;;;;-2.42;90.65;94296.59;5147766;27;20201;-76
2022/12/13 05:54:20;;;;;;;12.35;6.38;;;;;;;-2.46;90.23;94300.03;5134018;27;20254;-75
2022/12/13 05:56:47;;;;;;;10.52;5.55;;;;;;;-2.48;89.98;94302.13;5148371;27;20196;-77
2022/12/13 05:59:14;;;;;;;11.05;6.10;;;;;;;-2.51;90.39;94298.94;5134145;27;20258;-77
2022/12/13 06:01:40;;;;;;;13.43;7.38;;;;;;;-2.51;90.72;94314.03;5147952;27;20246;-77
2022/12/13 06:04:08;;;;;;;14.60;7.32;;;;;;;-2.47;89.99;94315.13;5133767;27;20552;-77
2022/12/13 06:06:36;;;;;;;15.32;7.22;;;;;;;-2.48;90.72;94308.22;5147558;27;20280;-77
2022/12/13 06:09:03;;;;;;;14.00;7.18;;;;;;;-2.44;90.98;94304.00;5144118;27;20200;-78
2022/12/13 06:11:31;;;;;;;7.47;4.45;;;;;;;-2.50;90.12;94305.03;5140822;27;20301;-78
2022/12/13 06:13:58;;;;;;;12.23;6.47;;;;;;;-2.48;90.54;94308.22;5143532;27;20197;-77
2022/12/13 06:16:25;;;;;;;12.13;6.93;;;;;;;-2.53;90.55;94310.84;5147528;27;20233;-77
2022/12/13 06:18:53;;;;;;;9.93;4.95;;;;;;;-2.49;90.66;94309.28;5145306;27;20204;-76
2022/12/13 06:21:19;;;;;;;13.98;7.47;;;;;;;-2.44;90.97;94308.50;5134903;27;20224;-77
2022/12/13 06:23:46;;;;;;;12.20;4.80;;;;;;;-2.52;90.41;94296.53;5141842;27;20189;-77
2022/12/13 06:26:13;;;;;;;9.25;4.47;;;;;;;-2.56;90.12;94295.44;5134630;27;20204;-77
2022/12/13 06:28:41;;;;;;;8.50;5.30;;;;;;;-2.55;89.19;94307.63;5133684;27;20204;-79
2022/12/13 06:31:08;;;;;;;12.35;5.90;;;;;;;-2.59;88.91;94301.22;5148004;27;20204;-77
2022/12/13 06:33:35;;;;;;;10.75;6.40;;;;;;;-2.59;89.77;94306.53;5146157;27;20197;-76
2022/12/13 06:36:03;;;;;;;15.73;7.80;;;;;;;-2.54;90.21;94311.88;5134495;27;20240;-75
2022/12/13 06:38:31;;;;;;;12.82;6.72;;;;;;;-2.51;90.71;94309.53;5133077;27;20197;-78
2022/12/13 06:41:07;;;;;;;14.93;7.63;;;;;;;-2.51;90.19;94314.03;5146616;27;20281;-79
2022/12/13 06:43:33;;;;;;;12.15;6.10;;;;;;;-2.50;90.73;94310.34;5132831;27;20249;-76
2022/12/13 06:46:04;;;;;;;15.38;7.70;;;;;;;-2.39;90.44;94317.31;5140633;27;20212;-77
2022/12/13 06:48:31;;;;;;;19.48;8.82;;;;;;;-2.33;90.96;94324.25;5151826;27;20288;-78
2022/12/13 06:51:01;;;;;;;12.40;6.18;;;;;;;-2.24;89.89;94306.78;5143189;27;20200;-77
2022/12/13 06:53:28;;;;;;;14.82;6.60;;;;;;;-2.32;89.82;94317.88;5138307;27;20838;-79
2022/12/13 06:55:55;;;;;;;12.88;6.13;;;;;;;-2.39;89.58;94322.59;5143301;27;20280;-78
2022/12/13 06:58:22;;;;;;;10.20;5.35;;;;;;;-2.40;88.92;94321.00;5140651;27;20616;-78
2022/12/13 07:00:48;;;;;;;13.63;6.97;;;;;;;-2.39;89.02;94319.94;5144378;27;20201;-76
2022/12/13 07:03:16;;;;;;;15.55;7.20;;;;;;;-2.29;89.33;94325.31;5136008;27;20200;-76
2022/12/13 07:05:44;;;;;;;6.32;3.67;;;;;;;-2.39;88.06;94317.31;5143329;27;20203;-77
2022/12/13 07:08:10;;;;;;;15.55;7.18;;;;;;;-2.23;88.97;94332.28;5147034;27;20703;-77
2022/12/13 07:10:39;;;;;;;18.05;7.88;;;;;;;-2.04;87.62;94324.66;5132996;27;20213;-77
2022/12/13 07:13:05;;;;;;;18.00;7.97;;;;;;;-2.00;86.59;94330.28;5148042;27;20534;-77
2022/12/13 07:15:33;;;;;;;14.32;6.90;;;;;;;-2.01;86.22;94331.31;5142372;27;20699;-77
2022/12/13 07:18:00;;;;;;;25.80;10.27;;;;;;;-1.88;86.28;94334.31;5137090;27;20248;-77
2022/12/13 07:20:28;;;;;;;13.30;5.35;;;;;;;-1.85;85.15;94338.31;5142252;27;20197;-78
2022/12/13 07:22:55;;;;;;;15.73;8.00;;;;;;;-1.86;85.24;94339.38;5135898;27;20200;-77
2022/12/13 07:25:22;;;;;;;18.23;7.50;;;;;;;-1.76;85.56;94338.63;5132642;27;20621;-77
2022/12/13 07:27:55;;;;;;;16.75;8.85;;;;;;;-1.80;85.30;94341.00;5136968;27;20287;-77
2022/12/13 07:30:21;;;;;;;18.42;8.77;;;;;;;-1.78;85.64;94349.53;5140681;27;20244;-77
2022/12/13 07:32:48;;;;;;;15.48;7.75;;;;;;;-1.78;85.25;94344.22;5146334;27;20238;-77
2022/12/13 07:35:15;;;;;;;14.68;6.63;;;;;;;-1.79;84.46;94347.94;5145424;27;20239;-77
2022/12/13 07:37:43;;;;;;;18.98;9.80;;;;;;;-1.87;85.70;94353.69;5132905;27;20200;-76
2022/12/13 07:40:11;;;;;;;187.55;50.80;;;;;;;-1.80;85.93;94356.94;5145667;27;20200;-76
2022/12/13 07:42:38;;;;;;;192.18;57.22;;;;;;;-1.76;84.88;94352.69;5138349;27;20249;-76
2022/12/13 07:45:05;;;;;;;35.80;17.13;;;;;;;-1.80;84.42;94356.94;5153250;27;20204;-76
2022/12/13 07:47:32;;;;;;;23.85;11.00;;;;;;;-1.86;84.11;94350.78;5139753;27;20200;-75
2022/12/13 07:49:59;;;;;;;29.52;13.40;;;;;;;-1.90;84.75;94356.88;5139690;27;20232;-75
2022/12/13 07:52:26;;;;;;;28.33;11.65;;;;;;;-1.91;84.83;94360.56;5145889;27;20192;-75
2022/12/13 07:54:54;;;;;;;14.00;7.07;;;;;;;-2.03;84.75;94357.31;5145678;27;20604;-75
2022/12/13 07:57:21;;;;;;;13.27;6.13;;;;;;;-1.88;85.46;94360.06;5139281;27;20197;-76
2022/12/13 07:59:48;;;;;;;16.70;8.55;;;;;;;-1.77;84.84;94356.41;5152245;27;20203;-77
2022/12/13 08:02:15;;;;;;;20.27;9.30;;;;;;;-1.77;85.05;94355.59;5132178;27;20663;-76
2022/12/13 08:04:42;;;;;;;18.52;8.23;;;;;;;-1.69;84.87;94358.59;5145898;27;20223;-77
2022/12/13 08:07:10;;;;;;;14.63;7.57;;;;;;;-1.82;84.27;94364.34;5113757;27;20197;-76
2022/12/13 08:09:37;;;;;;;10.77;5.30;;;;;;;-1.87;82.83;94362.47;5133284;27;20228;-76
2022/12/13 08:12:05;;;;;;;12.95;5.15;;;;;;;-1.98;83.69;94370.63;5144140;27;20201;-76
2022/12/13 08:14:32;;;;;;;19.13;9.02;;;;;;;-1.84;84.35;94366.47;5145665;27;20200;-75
2022/12/13 08:16:59;;;;;;;8.57;4.85;;;;;;;-1.94;83.31;94375.19;5140180;27;20227;-75
2022/12/13 08:19:26;;;;;;;13.52;6.00;;;;;;;-1.99;82.96;94379.63;5139028;27;20193;-75
2022/12/13 08:21:55;;;;;;;23.02;10.98;;;;;;;-2.04;82.44;94382.25;5143913;27;20193;-75
2022/12/13 08:24:22;;;;;;;19.58;7.10;;;;;;;-1.75;83.25;94380.03;5135628;27;20197;-76
2022/12/13 08:26:49;;;;;;;31.05;14.75;;;;;;;-1.41;83.01;94388.47;5143793;27;20200;-76
2022/12/13 08:29:17;;;;;;;17.35;8.13;;;;;;;-1.35;81.80;94384.75;5145522;27;20204;-76
2022/12/13 08:31:44;;;;;;;23.17;9.60;;;;;;;-1.31;81.22;94393.81;5141281;27;20197;-76
2022/12/13 08:34:11;;;;;;;13.18;7.45;;;;;;;-1.72;81.94;94363.59;5138215;27;20197;-75
2022/12/13 08:36:38;;;;;;;59.72;25.58;;;;;;;-1.42;82.38;94376.25;5142967;27;20276;-76
2022/12/13 08:39:05;;;;;;;27.35;12.60;;;;;;;-1.45;82.19;94375.69;5145190;27;20245;-76
2022/12/13 08:41:32;;;;;;;16.50;8.20;;;;;;;-1.14;81.25;94376.63;5140853;27;20714;-77
2022/12/13 08:43:59;;;;;;;17.95;9.30;;;;;;;-1.18;81.31;94370.22;5151987;27;20598;-76
2022/12/13 08:46:27;;;;;;;18.70;9.65;;;;;;;-0.60;81.41;94367.44;5140934;27;20672;-76
2022/12/13 08:48:54;;;;;;;20.38;9.45;;;;;;;-0.07;81.39;94353.59;5145585;27;20229;-76
2022/12/13 08:51:22;;;;;;;6.35;2.28;;;;;;;0.69;80.03;94350.75;5143266;27;20502;-76
2022/12/13 08:53:49;;;;;;;9.52;3.40;;;;;;;1.01;77.13;94345.00;5138570;27;20204;-75
2022/12/13 08:56:17;;;;;;;4.00;2.22;;;;;;;1.30;75.75;94339.78;5143994;27;20233;-76
2022/12/13 08:58:44;;;;;;;2.20;1.25;;;;;;;0.93;75.65;94339.47;5149431;27;20208;-76
2022/12/13 09:01:11;;;;;;;1.27;1.17;;;;;;;1.13;76.11;94342.00;5135587;27;20201;-75
2022/12/13 09:03:39;;;;;;;2.95;1.92;;;;;;;1.35;75.38;94336.28;5149623;27;20253;-75
2022/12/13 09:06:09;;;;;;;5.68;2.45;;;;;;;1.42;74.42;94321.53;5147885;27;20720;-76
2022/12/13 09:08:36;;;;;;;6.82;2.90;;;;;;;1.69;74.53;94318.41;5135704;27;20788;-75
2022/12/13 09:11:03;;;;;;;6.35;2.90;;;;;;;1.94;74.00;94317.38;5147505;27;20220;-75
2022/12/13 09:13:31;;;;;;;9.65;2.47;;;;;;;2.08;73.88;94323.66;5141596;27;20200;-75
2022/12/13 09:15:59;;;;;;;5.13;2.97;;;;;;;1.68;72.46;94316.00;5141803;27;20228;-75
2022/12/13 09:18:26;;;;;;;6.03;3.88;;;;;;;1.77;73.33;94311.69;5149253;27;20253;-74
2022/12/13 09:20:54;;;;;;;8.73;3.60;;;;;;;1.23;70.00;94315.25;5135148;27;20212;-76
2022/12/13 09:23:21;;;;;;;5.75;3.13;;;;;;;1.07;72.09;94311.13;5137153;27;20189;-76
2022/12/13 09:25:54;;;;;;;5.43;2.88;;;;;;;1.63;71.37;94305.41;5148596;27;20255;-75
2022/12/13 09:28:21;;;;;;;8.98;2.55;;;;;;;1.95;71.91;94302.94;5142777;27;20292;-75
2022/12/13 09:30:48;;;;;;;5.60;3.75;;;;;;;2.29;70.02;94302.91;5141207;27;20240;-75
2022/12/13 09:33:15;;;;;;;4.55;3.03;;;;;;;2.34;70.59;94294.81;5146743;27;20201;-75
2022/12/13 09:35:42;;;;;;;7.85;2.97;;;;;;;2.40;71.20;94298.22;5148674;27;20458;-76
2022/12/13 09:38:10;;;;;;;11.77;4.55;;;;;;;2.73;71.25;94294.63;5135318;27;20241;-76
2022/12/13 09:40:38;;;;;;;4.15;1.60;;;;;;;2.19;66.58;94296.88;5148210;27;20196;-76
2022/12/13 09:43:06;;;;;;;2.60;2.10;;;;;;;2.45;68.95;94295.50;5134583;27;20261;-76
2022/12/13 09:45:35;;;;;;;7.05;2.25;;;;;;;2.58;68.86;94286.00;5148111;27;20312;-75
2022/12/13 09:48:02;;;;;;;5.32;3.22;;;;;;;2.71;68.92;94285.31;5146018;27;20272;-75
2022/12/13 09:50:32;;;;;;;5.13;3.25;;;;;;;2.64;67.60;94288.31;5141281;27;20338;-76
2022/12/13 09:53:00;;;;;;;4.10;1.90;;;;;;;2.43;68.13;94292.31;5143157;27;20288;-77
2022/12/13 09:55:31;;;;;;;4.70;2.22;;;;;;;2.50;69.19;94282.88;5139079;27;20585;-76
2022/12/13 09:58:00;;;;;;;2.35;1.98;;;;;;;2.73;68.00;94281.25;5142305;27;20189;-76
2022/12/13 10:00:34;;;;;;;5.03;2.45;;;;;;;2.78;66.72;94289.22;5147775;27;20201;-75
2022/12/13 10:03:01;;;;;;;12.43;4.97;;;;;;;3.14;66.50;94286.06;5148147;27;20227;-75
2022/12/13 10:05:30;;;;;;;3.85;2.13;;;;;;;3.05;66.45;94283.22;5142084;27;20200;-76
2022/12/13 10:08:00;;;;;;;3.72;1.63;;;;;;;3.21;65.45;94281.16;5140705;27;20300;-76
2022/12/13 10:10:28;;;;;;;0.43;0.43;;;;;;;2.10;62.43;94284.09;5146290;27;20221;-76
2022/12/13 10:13:03;;;;;;;2.45;1.70;;;;;;;1.46;65.51;94275.63;5135627;27;20208;-76
2022/12/13 10:15:33;;;;;;;1.08;0.95;;;;;;;1.09;64.94;94284.19;5144081;27;20238;-75
2022/12/13 10:18:03;;;;;;;1.70;1.52;;;;;;;0.94;66.97;94279.72;5147559;27;20200;-75
2022/12/13 10:20:30;;;;;;;0.93;0.88;;;;;;;1.15;67.17;94273.19;5134232;27;20201;-75
2022/12/13 10:22:57;;;;;;;0.45;0.45;;;;;;;1.03;63.21;94280.72;5149784;27;20209;-75
2022/12/13 10:25:47;;;;;;;2.08;1.15;;;;;;;1.01;64.93;94272.22;5143040;27;20655;-75
2022/12/13 10:28:17;;;;;;;1.65;1.55;;;;;;;0.94;68.54;94267.19;5140840;27;20327;-76
2022/12/13 10:30:45;;;;;;;3.05;2.10;;;;;;;1.02;68.57;94257.81;5152958;27;20608;-75
2022/12/13 10:33:22;;;;;;;1.38;1.02;;;;;;;1.69;71.23;94240.19;5132805;27;20269;-75
2022/12/13 10:36:03;;;;;;;3.72;1.45;;;;;;;2.00;67.13;94240.69;5136034;27;20282;-76
2022/12/13 10:38:34;;;;;;;2.05;1.33;;;;;;;2.37;68.10;94231.97;5142737;27;20185;-76
2022/12/13 10:41:02;;;;;;;1.92;1.70;;;;;;;2.40;65.87;94231.41;5147950;27;20204;-76
2022/12/13 10:43:30;;;;;;;2.47;2.00;;;;;;;2.03;65.66;94230.25;5132962;27;20201;-76
2022/12/13 10:45:59;;;;;;;1.40;1.30;;;;;;;1.58;66.54;94228.03;5154458;27;20204;-75
2022/12/13 10:48:34;;;;;;;1.33;1.17;;;;;;;1.71;64.21;94222.03;5139549;27;20208;-76
2022/12/13 10:51:04;;;;;;;0.93;0.90;;;;;;;1.42;65.13;94228.16;5145681;27;20200;-75
2022/12/13 10:53:33;;;;;;;2.17;1.95;;;;;;;1.50;65.12;94228.63;5148040;27;20249;-74
2022/12/13 10:56:02;;;;;;;0.57;0.57;;;;;;;1.14;67.25;94228.91;5143063;27;20310;-75
2022/12/13 10:58:38;;;;;;;5.90;1.95;;;;;;;1.14;68.65;94218.25;5136746;27;20258;-74
2022/12/13 11:01:11;;;;;;;2.22;1.10;;;;;;;0.98;66.88;94219.44;5144229;27;20196;-74
2022/12/13 11:03:38;;;;;;;4.47;2.35;;;;;;;1.31;70.58;94217.84;5139468;27;20635;-74
2022/12/13 11:06:07;;;;;;;3.38;2.28;;;;;;;1.60;70.16;94209.84;5141184;27;20193;-74
2022/12/13 11:08:34;;;;;;;1.83;0.90;;;;;;;1.66;68.55;94212.19;5147191;27;20261;-74
2022/12/13 11:11:03;;;;;;;2.83;1.48;;;;;;;1.95;68.54;94211.34;5132913;27;20217;-75
2022/12/13 11:13:37;;;;;;;0.85;0.77;;;;;;;1.51;65.50;94211.53;5146822;27;20308;-74
2022/12/13 11:16:18;;;;;;;0.65;0.55;;;;;;;1.36;66.94;94205.28;5132821;27;20304;-74
2022/12/13 11:18:52;;;;;;;2.40;2.15;;;;;;;1.39;67.49;94194.03;5142836;27;20798;-75
2022/12/13 11:21:24;;;;;;;1.33;1.23;;;;;;;1.60;66.74;94194.63;5133024;27;20201;-74
2022/12/13 11:23:53;;;;;;;5.10;2.83;;;;;;;1.40;69.72;94211.63;5134393;27;20688;-74
2022/12/13 11:26:23;;;;;;;5.85;3.50;;;;;;;1.48;69.92;94190.75;5146662;27;20290;-75
2022/12/13 11:29:13;;;;;;;2.70;2.08;;;;;;;1.46;67.90;94192.91;5144911;27;20323;-75
2022/12/13 11:31:51;;;;;;;1.42;1.30;;;;;;;1.46;67.74;94193.72;5132612;27;20245;-75
2022/12/13 11:34:31;;;;;;;28.50;5.65;;;;;;;1.20;68.17;94195.00;5146457;27;20193;-74
2022/12/13 11:37:07;;;;;;;2.38;2.15;;;;;;;1.31;70.48;94197.31;5144220;27;20236;-75
2022/12/13 11:39:37;;;;;;;2.78;1.65;;;;;;;1.56;68.74;94203.47;5139104;27;20658;-75
2022/12/13 11:42:14;;;;;;;6.07;3.28;;;;;;;1.48;67.49;94212.09;5140342;27;20704;-76
2022/12/13 11:44:47;;;;;;;0.77;0.75;;;;;;;1.68;69.35;94201.22;5142438;27;20197;-74